sensor_id;sensor_type;location;lat;lon;timestamp;temperature;humidity
55121;DHT22;41019;48.512;9.036;2023-07-02T00:00:29;18.50;96.80
55121;DHT22;41019;48.512;9.036;2023-07-02T00:02:55;18.40;96.70
55121;DHT22;41019;48.512;9.036;2023-07-02T00:05:21;18.50;97.60
55121;DHT22;41019;48.512;9.036;2023-07-02T00:07:47;18.50;97.60
55121;DHT22;41019;48.512;9.036;2023-07-02T00:10:13;18.40;96.60
55121;DHT22;41019;48.512;9.036;2023-07-02T00:12:39;18.40;96.60
55121;DHT22;41019;48.512;9.036;2023-07-02T00:15:05;18.40;97.10
55121;DHT22;41019;48.512;9.036;2023-07-02T00:17:31;18.40;97.50
55121;DHT22;41019;48.512;9.036;2023-07-02T00:19:57;18.40;97.90
55121;DHT22;41019;48.512;9.036;2023-07-02T00:22:28;18.40;97.70
55121;DHT22;41019;48.512;9.036;2023-07-02T00:24:55;18.40;97.20
55121;DHT22;41019;48.512;9.036;2023-07-02T00:27:22;18.40;97.20
55121;DHT22;41019;48.512;9.036;2023-07-02T00:29:47;18.40;97.50
55121;DHT22;41019;48.512;9.036;2023-07-02T00:32:13;18.40;97.20
55121;DHT22;41019;48.512;9.036;2023-07-02T00:34:39;18.40;96.40
55121;DHT22;41019;48.512;9.036;2023-07-02T00:37:06;18.40;96.70
55121;DHT22;41019;48.512;9.036;2023-07-02T00:39:32;18.30;97.00
55121;DHT22;41019;48.512;9.036;2023-07-02T00:42:01;18.30;97.30
55121;DHT22;41019;48.512;9.036;2023-07-02T00:44:28;18.30;97.20
55121;DHT22;41019;48.512;9.036;2023-07-02T00:46:55;18.30;97.10
55121;DHT22;41019;48.512;9.036;2023-07-02T00:49:21;18.30;96.70
55121;DHT22;41019;48.512;9.036;2023-07-02T00:51:48;18.30;97.10
55121;DHT22;41019;48.512;9.036;2023-07-02T00:54:13;18.30;97.10
55121;DHT22;41019;48.512;9.036;2023-07-02T00:56:40;18.30;97.10
55121;DHT22;41019;48.512;9.036;2023-07-02T00:59:06;18.30;97.30
55121;DHT22;41019;48.512;9.036;2023-07-02T01:01:33;18.30;97.30
55121;DHT22;41019;48.512;9.036;2023-07-02T01:04:05;18.30;97.20
55121;DHT22;41019;48.512;9.036;2023-07-02T01:06:35;18.30;97.50
55121;DHT22;41019;48.512;9.036;2023-07-02T01:09:03;18.20;97.40
55121;DHT22;41019;48.512;9.036;2023-07-02T01:11:38;18.20;97.40
55121;DHT22;41019;48.512;9.036;2023-07-02T01:16:57;18.10;97.30
55121;DHT22;41019;48.512;9.036;2023-07-02T01:22:07;18.10;97.60
55121;DHT22;41019;48.512;9.036;2023-07-02T01:24:36;18.10;97.40
55121;DHT22;41019;48.512;9.036;2023-07-02T01:27:02;18.00;97.30
55121;DHT22;41019;48.512;9.036;2023-07-02T01:29:31;18.00;97.10
55121;DHT22;41019;48.512;9.036;2023-07-02T01:31:57;17.90;96.90
55121;DHT22;41019;48.512;9.036;2023-07-02T01:34:23;17.90;96.90
55121;DHT22;41019;48.512;9.036;2023-07-02T01:36:49;17.80;96.60
55121;DHT22;41019;48.512;9.036;2023-07-02T01:39:16;17.70;96.80
55121;DHT22;41019;48.512;9.036;2023-07-02T01:41:50;17.70;96.90
55121;DHT22;41019;48.512;9.036;2023-07-02T01:44:17;17.60;97.20
55121;DHT22;41019;48.512;9.036;2023-07-02T01:46:44;17.60;97.40
55121;DHT22;41019;48.512;9.036;2023-07-02T01:49:11;17.60;97.60
55121;DHT22;41019;48.512;9.036;2023-07-02T01:51:37;17.60;97.80
55121;DHT22;41019;48.512;9.036;2023-07-02T01:54:04;17.50;97.80
55121;DHT22;41019;48.512;9.036;2023-07-02T01:56:30;17.50;97.90
55121;DHT22;41019;48.512;9.036;2023-07-02T01:58:56;17.50;98.10
55121;DHT22;41019;48.512;9.036;2023-07-02T02:01:22;17.50;98.30
55121;DHT22;41019;48.512;9.036;2023-07-02T02:03:48;17.50;98.30
55121;DHT22;41019;48.512;9.036;2023-07-02T02:06:14;17.40;98.40
55121;DHT22;41019;48.512;9.036;2023-07-02T02:08:40;17.50;98.60
55121;DHT22;41019;48.512;9.036;2023-07-02T02:11:05;17.50;98.50
55121;DHT22;41019;48.512;9.036;2023-07-02T02:13:31;17.50;98.40
55121;DHT22;41019;48.512;9.036;2023-07-02T02:15:59;17.50;98.60
55121;DHT22;41019;48.512;9.036;2023-07-02T02:18:25;17.50;98.90
55121;DHT22;41019;48.512;9.036;2023-07-02T02:20:52;17.50;98.60
55121;DHT22;41019;48.512;9.036;2023-07-02T02:23:17;17.40;98.60
55121;DHT22;41019;48.512;9.036;2023-07-02T02:25:44;17.40;98.50
55121;DHT22;41019;48.512;9.036;2023-07-02T02:28:10;17.40;98.60
55121;DHT22;41019;48.512;9.036;2023-07-02T02:30:37;17.40;98.90
55121;DHT22;41019;48.512;9.036;2023-07-02T02:33:03;17.40;99.00
55121;DHT22;41019;48.512;9.036;2023-07-02T02:35:29;17.40;99.10
55121;DHT22;41019;48.512;9.036;2023-07-02T02:37:55;17.40;99.20
55121;DHT22;41019;48.512;9.036;2023-07-02T02:40:21;17.40;99.20
55121;DHT22;41019;48.512;9.036;2023-07-02T02:42:47;17.40;99.30
55121;DHT22;41019;48.512;9.036;2023-07-02T02:45:14;17.50;99.30
55121;DHT22;41019;48.512;9.036;2023-07-02T02:47:40;17.50;99.50
55121;DHT22;41019;48.512;9.036;2023-07-02T02:50:06;17.50;99.40
55121;DHT22;41019;48.512;9.036;2023-07-02T02:52:33;17.50;99.50
55121;DHT22;41019;48.512;9.036;2023-07-02T02:54:59;17.60;99.60
55121;DHT22;41019;48.512;9.036;2023-07-02T02:57:25;17.60;99.40
55121;DHT22;41019;48.512;9.036;2023-07-02T02:59:51;17.60;99.70
55121;DHT22;41019;48.512;9.036;2023-07-02T03:02:17;17.60;99.70
55121;DHT22;41019;48.512;9.036;2023-07-02T03:04:43;17.60;99.90
55121;DHT22;41019;48.512;9.036;2023-07-02T03:07:10;17.70;99.90
55121;DHT22;41019;48.512;9.036;2023-07-02T03:09:36;17.70;99.60
55121;DHT22;41019;48.512;9.036;2023-07-02T03:12:02;17.60;99.70
55121;DHT22;41019;48.512;9.036;2023-07-02T03:14:28;17.50;99.90
55121;DHT22;41019;48.512;9.036;2023-07-02T03:16:54;17.60;99.90
55121;DHT22;41019;48.512;9.036;2023-07-02T03:19:21;17.60;99.90
55121;DHT22;41019;48.512;9.036;2023-07-02T03:21:47;17.60;99.90
55121;DHT22;41019;48.512;9.036;2023-07-02T03:24:13;17.50;99.90
55121;DHT22;41019;48.512;9.036;2023-07-02T03:26:40;17.50;99.90
55121;DHT22;41019;48.512;9.036;2023-07-02T03:29:06;17.50;99.90
55121;DHT22;41019;48.512;9.036;2023-07-02T03:31:32;17.40;99.90
55121;DHT22;41019;48.512;9.036;2023-07-02T03:33:58;17.40;99.90
55121;DHT22;41019;48.512;9.036;2023-07-02T03:36:24;17.40;99.90
55121;DHT22;41019;48.512;9.036;2023-07-02T03:38:50;17.40;99.90
55121;DHT22;41019;48.512;9.036;2023-07-02T03:41:16;17.30;99.90
55121;DHT22;41019;48.512;9.036;2023-07-02T03:43:41;17.30;99.90
55121;DHT22;41019;48.512;9.036;2023-07-02T03:46:08;17.30;99.90
55121;DHT22;41019;48.512;9.036;2023-07-02T03:48:33;17.30;99.90
55121;DHT22;41019;48.512;9.036;2023-07-02T03:51:01;17.20;99.90
55121;DHT22;41019;48.512;9.036;2023-07-02T03:53:27;17.20;99.90
55121;DHT22;41019;48.512;9.036;2023-07-02T03:55:54;17.20;99.90
55121;DHT22;41019;48.512;9.036;2023-07-02T03:58:20;17.10;99.90
55121;DHT22;41019;48.512;9.036;2023-07-02T04:00:45;17.00;99.90
55121;DHT22;41019;48.512;9.036;2023-07-02T04:03:16;17.00;99.90
55121;DHT22;41019;48.512;9.036;2023-07-02T04:05:45;17.00;99.90
55121;DHT22;41019;48.512;9.036;2023-07-02T04:08:12;16.90;99.90
55121;DHT22;41019;48.512;9.036;2023-07-02T04:10:38;16.90;99.90
55121;DHT22;41019;48.512;9.036;2023-07-02T04:13:05;16.80;99.90
55121;DHT22;41019;48.512;9.036;2023-07-02T04:15:30;16.80;99.90
55121;DHT22;41019;48.512;9.036;2023-07-02T04:17:57;16.80;99.90
55121;DHT22;41019;48.512;9.036;2023-07-02T04:20:23;16.80;99.90
55121;DHT22;41019;48.512;9.036;2023-07-02T04:22:52;16.80;99.90
55121;DHT22;41019;48.512;9.036;2023-07-02T04:25:22;16.80;99.90
55121;DHT22;41019;48.512;9.036;2023-07-02T04:27:49;16.80;99.90
55121;DHT22;41019;48.512;9.036;2023-07-02T04:30:23;16.80;99.90
55121;DHT22;41019;48.512;9.036;2023-07-02T04:32:52;16.90;99.90
55121;DHT22;41019;48.512;9.036;2023-07-02T04:35:18;16.90;99.90
55121;DHT22;41019;48.512;9.036;2023-07-02T04:37:46;16.90;99.90
55121;DHT22;41019;48.512;9.036;2023-07-02T04:40:15;16.90;99.90
55121;DHT22;41019;48.512;9.036;2023-07-02T04:42:45;16.90;99.90
55121;DHT22;41019;48.512;9.036;2023-07-02T04:45:14;16.90;99.90
55121;DHT22;41019;48.512;9.036;2023-07-02T04:47:45;17.00;99.90
55121;DHT22;41019;48.512;9.036;2023-07-02T04:53:05;17.00;99.90
55121;DHT22;41019;48.512;9.036;2023-07-02T04:55:31;17.10;99.90
55121;DHT22;41019;48.512;9.036;2023-07-02T04:57:57;17.10;99.90
55121;DHT22;41019;48.512;9.036;2023-07-02T05:00:22;17.20;99.90
55121;DHT22;41019;48.512;9.036;2023-07-02T05:02:49;17.20;99.90
55121;DHT22;41019;48.512;9.036;2023-07-02T05:05:16;17.30;99.90
55121;DHT22;41019;48.512;9.036;2023-07-02T05:07:42;17.30;99.90
55121;DHT22;41019;48.512;9.036;2023-07-02T05:10:08;17.30;99.90
55121;DHT22;41019;48.512;9.036;2023-07-02T05:12:34;17.40;99.90
55121;DHT22;41019;48.512;9.036;2023-07-02T05:15:00;17.40;99.90
55121;DHT22;41019;48.512;9.036;2023-07-02T05:17:27;17.40;99.90
55121;DHT22;41019;48.512;9.036;2023-07-02T05:19:53;17.40;99.90
55121;DHT22;41019;48.512;9.036;2023-07-02T05:22:19;17.50;99.90
55121;DHT22;41019;48.512;9.036;2023-07-02T05:24:45;17.50;99.90
55121;DHT22;41019;48.512;9.036;2023-07-02T05:27:12;17.60;99.90
55121;DHT22;41019;48.512;9.036;2023-07-02T05:29:38;17.60;99.90
55121;DHT22;41019;48.512;9.036;2023-07-02T05:32:04;17.70;99.90
55121;DHT22;41019;48.512;9.036;2023-07-02T05:34:30;17.70;99.90
55121;DHT22;41019;48.512;9.036;2023-07-02T05:36:56;17.70;99.90
55121;DHT22;41019;48.512;9.036;2023-07-02T05:39:22;17.80;99.90
55121;DHT22;41019;48.512;9.036;2023-07-02T05:41:48;17.80;99.90
55121;DHT22;41019;48.512;9.036;2023-07-02T05:44:14;17.80;99.90
55121;DHT22;41019;48.512;9.036;2023-07-02T05:46:40;17.80;99.60
55121;DHT22;41019;48.512;9.036;2023-07-02T05:49:06;17.90;99.90
55121;DHT22;41019;48.512;9.036;2023-07-02T05:51:32;17.80;99.90
55121;DHT22;41019;48.512;9.036;2023-07-02T05:53:58;17.90;99.90
55121;DHT22;41019;48.512;9.036;2023-07-02T05:56:24;18.00;99.90
55121;DHT22;41019;48.512;9.036;2023-07-02T05:58:50;18.10;99.90
55121;DHT22;41019;48.512;9.036;2023-07-02T06:01:16;18.20;99.90
55121;DHT22;41019;48.512;9.036;2023-07-02T06:03:42;18.30;99.90
55121;DHT22;41019;48.512;9.036;2023-07-02T06:06:09;18.30;99.90
55121;DHT22;41019;48.512;9.036;2023-07-02T06:08:36;18.30;99.80
55121;DHT22;41019;48.512;9.036;2023-07-02T06:11:02;18.40;99.50
55121;DHT22;41019;48.512;9.036;2023-07-02T06:13:28;18.40;99.30
55121;DHT22;41019;48.512;9.036;2023-07-02T06:15:54;18.40;99.10
55121;DHT22;41019;48.512;9.036;2023-07-02T06:18:20;18.50;99.10
55121;DHT22;41019;48.512;9.036;2023-07-02T06:20:46;18.50;99.40
55121;DHT22;41019;48.512;9.036;2023-07-02T06:23:12;18.50;99.10
55121;DHT22;41019;48.512;9.036;2023-07-02T06:25:38;18.50;98.90
55121;DHT22;41019;48.512;9.036;2023-07-02T06:28:04;18.50;98.70
55121;DHT22;41019;48.512;9.036;2023-07-02T06:30:29;18.60;98.90
55121;DHT22;41019;48.512;9.036;2023-07-02T06:32:56;18.70;98.80
55121;DHT22;41019;48.512;9.036;2023-07-02T06:35:21;18.80;98.50
55121;DHT22;41019;48.512;9.036;2023-07-02T06:37:47;18.90;98.70
55121;DHT22;41019;48.512;9.036;2023-07-02T06:40:13;19.10;98.00
55121;DHT22;41019;48.512;9.036;2023-07-02T06:42:40;19.20;96.80
55121;DHT22;41019;48.512;9.036;2023-07-02T06:45:06;19.40;96.90
55121;DHT22;41019;48.512;9.036;2023-07-02T06:47:32;19.60;96.10
55121;DHT22;41019;48.512;9.036;2023-07-02T06:49:58;19.80;96.20
55121;DHT22;41019;48.512;9.036;2023-07-02T06:52:25;19.90;95.50
55121;DHT22;41019;48.512;9.036;2023-07-02T06:54:51;20.00;95.40
55121;DHT22;41019;48.512;9.036;2023-07-02T06:57:17;20.10;94.70
55121;DHT22;41019;48.512;9.036;2023-07-02T06:59:42;20.20;94.50
55121;DHT22;41019;48.512;9.036;2023-07-02T07:02:08;20.30;94.30
55121;DHT22;41019;48.512;9.036;2023-07-02T07:04:34;20.30;93.90
55121;DHT22;41019;48.512;9.036;2023-07-02T07:07:00;20.50;93.90
55121;DHT22;41019;48.512;9.036;2023-07-02T07:09:29;20.60;93.90
55121;DHT22;41019;48.512;9.036;2023-07-02T07:11:56;20.70;93.50
55121;DHT22;41019;48.512;9.036;2023-07-02T07:14:22;20.90;92.60
55121;DHT22;41019;48.512;9.036;2023-07-02T07:16:47;21.00;92.20
55121;DHT22;41019;48.512;9.036;2023-07-02T07:19:15;21.10;92.70
55121;DHT22;41019;48.512;9.036;2023-07-02T07:21:41;21.20;92.00
55121;DHT22;41019;48.512;9.036;2023-07-02T07:24:08;21.30;90.80
55121;DHT22;41019;48.512;9.036;2023-07-02T07:26:33;21.30;90.90
55121;DHT22;41019;48.512;9.036;2023-07-02T07:28:59;21.40;91.00
55121;DHT22;41019;48.512;9.036;2023-07-02T07:31:25;21.40;90.30
55121;DHT22;41019;48.512;9.036;2023-07-02T07:33:52;21.50;90.60
55121;DHT22;41019;48.512;9.036;2023-07-02T07:36:19;21.60;89.60
55121;DHT22;41019;48.512;9.036;2023-07-02T07:38:44;21.70;90.00
55121;DHT22;41019;48.512;9.036;2023-07-02T07:41:11;22.00;89.80
55121;DHT22;41019;48.512;9.036;2023-07-02T07:43:36;22.10;87.20
55121;DHT22;41019;48.512;9.036;2023-07-02T07:46:03;22.30;86.80
55121;DHT22;41019;48.512;9.036;2023-07-02T07:48:28;22.50;86.10
55121;DHT22;41019;48.512;9.036;2023-07-02T07:50:55;22.70;85.60
55121;DHT22;41019;48.512;9.036;2023-07-02T07:53:20;22.80;84.70
55121;DHT22;41019;48.512;9.036;2023-07-02T07:55:46;22.80;84.50
55121;DHT22;41019;48.512;9.036;2023-07-02T07:58:12;23.00;84.20
55121;DHT22;41019;48.512;9.036;2023-07-02T08:00:38;23.00;83.00
55121;DHT22;41019;48.512;9.036;2023-07-02T08:03:04;23.10;81.30
55121;DHT22;41019;48.512;9.036;2023-07-02T08:05:30;23.00;82.90
55121;DHT22;41019;48.512;9.036;2023-07-02T08:07:56;23.10;81.20
55121;DHT22;41019;48.512;9.036;2023-07-02T08:10:23;23.00;80.20
55121;DHT22;41019;48.512;9.036;2023-07-02T08:12:51;23.10;79.50
55121;DHT22;41019;48.512;9.036;2023-07-02T08:15:18;23.20;79.30
55121;DHT22;41019;48.512;9.036;2023-07-02T08:17:44;23.20;78.90
55121;DHT22;41019;48.512;9.036;2023-07-02T08:20:10;23.40;81.80
55121;DHT22;41019;48.512;9.036;2023-07-02T08:22:40;23.40;77.00
55121;DHT22;41019;48.512;9.036;2023-07-02T08:25:07;23.60;76.50
55121;DHT22;41019;48.512;9.036;2023-07-02T08:27:33;23.80;76.40
55121;DHT22;41019;48.512;9.036;2023-07-02T08:29:59;23.80;75.10
55121;DHT22;41019;48.512;9.036;2023-07-02T08:32:25;24.00;76.00
55121;DHT22;41019;48.512;9.036;2023-07-02T08:34:51;24.00;77.10
55121;DHT22;41019;48.512;9.036;2023-07-02T08:37:17;24.20;75.70
55121;DHT22;41019;48.512;9.036;2023-07-02T08:39:43;24.40;77.00
55121;DHT22;41019;48.512;9.036;2023-07-02T08:42:09;24.80;75.10
55121;DHT22;41019;48.512;9.036;2023-07-02T08:44:35;24.90;74.90
55121;DHT22;41019;48.512;9.036;2023-07-02T08:47:02;25.10;74.10
55121;DHT22;41019;48.512;9.036;2023-07-02T08:49:27;25.50;72.70
55121;DHT22;41019;48.512;9.036;2023-07-02T08:51:53;25.70;72.10
55121;DHT22;41019;48.512;9.036;2023-07-02T08:54:20;25.80;69.80
55121;DHT22;41019;48.512;9.036;2023-07-02T08:56:46;25.90;69.80
55121;DHT22;41019;48.512;9.036;2023-07-02T08:59:12;25.80;68.30
55121;DHT22;41019;48.512;9.036;2023-07-02T09:01:52;25.80;68.40
55121;DHT22;41019;48.512;9.036;2023-07-02T09:04:25;25.90;70.00
55121;DHT22;41019;48.512;9.036;2023-07-02T09:07:07;26.10;67.90
55121;DHT22;41019;48.512;9.036;2023-07-02T09:09:44;26.30;66.60
55121;DHT22;41019;48.512;9.036;2023-07-02T09:12:24;26.40;65.60
55121;DHT22;41019;48.512;9.036;2023-07-02T09:14:56;26.50;66.60
55121;DHT22;41019;48.512;9.036;2023-07-02T09:17:27;26.70;65.80
55121;DHT22;41019;48.512;9.036;2023-07-02T09:19:54;26.70;65.20
55121;DHT22;41019;48.512;9.036;2023-07-02T09:22:20;26.90;62.20
55121;DHT22;41019;48.512;9.036;2023-07-02T09:24:54;26.90;64.10
55121;DHT22;41019;48.512;9.036;2023-07-02T09:27:21;27.00;62.30
55121;DHT22;41019;48.512;9.036;2023-07-02T09:29:53;27.10;59.80
55121;DHT22;41019;48.512;9.036;2023-07-02T09:32:26;27.20;60.40
55121;DHT22;41019;48.512;9.036;2023-07-02T09:34:54;27.20;60.50
55121;DHT22;41019;48.512;9.036;2023-07-02T09:37:21;27.30;59.00
55121;DHT22;41019;48.512;9.036;2023-07-02T09:39:50;27.30;60.00
55121;DHT22;41019;48.512;9.036;2023-07-02T09:42:18;27.20;59.90
55121;DHT22;41019;48.512;9.036;2023-07-02T09:44:45;27.10;56.90
55121;DHT22;41019;48.512;9.036;2023-07-02T09:47:13;27.20;56.70
55121;DHT22;41019;48.512;9.036;2023-07-02T09:49:49;27.10;57.50
55121;DHT22;41019;48.512;9.036;2023-07-02T09:52:17;27.10;57.40
55121;DHT22;41019;48.512;9.036;2023-07-02T09:54:44;27.20;57.40
55121;DHT22;41019;48.512;9.036;2023-07-02T09:57:11;27.40;56.30
55121;DHT22;41019;48.512;9.036;2023-07-02T09:59:38;27.50;56.10
55121;DHT22;41019;48.512;9.036;2023-07-02T10:02:04;27.60;55.40
55121;DHT22;41019;48.512;9.036;2023-07-02T10:04:44;27.80;56.10
55121;DHT22;41019;48.512;9.036;2023-07-02T10:07:11;27.90;56.00
55121;DHT22;41019;48.512;9.036;2023-07-02T10:09:39;28.00;55.50
55121;DHT22;41019;48.512;9.036;2023-07-02T10:14:43;28.20;55.10
55121;DHT22;41019;48.512;9.036;2023-07-02T10:17:09;28.30;55.60
55121;DHT22;41019;48.512;9.036;2023-07-02T10:19:35;28.50;52.50
55121;DHT22;41019;48.512;9.036;2023-07-02T10:22:03;28.40;53.70
55121;DHT22;41019;48.512;9.036;2023-07-02T10:24:56;28.30;53.10
55121;DHT22;41019;48.512;9.036;2023-07-02T10:27:42;28.40;53.80
55121;DHT22;41019;48.512;9.036;2023-07-02T10:30:09;28.50;54.90
55121;DHT22;41019;48.512;9.036;2023-07-02T10:32:37;28.60;54.60
55121;DHT22;41019;48.512;9.036;2023-07-02T10:35:17;28.70;53.10
55121;DHT22;41019;48.512;9.036;2023-07-02T10:37:44;28.50;50.70
55121;DHT22;41019;48.512;9.036;2023-07-02T10:40:11;28.70;51.10
55121;DHT22;41019;48.512;9.036;2023-07-02T10:42:56;28.60;49.30
55121;DHT22;41019;48.512;9.036;2023-07-02T10:45:31;28.60;49.70
55121;DHT22;41019;48.512;9.036;2023-07-02T10:47:58;28.40;50.90
55121;DHT22;41019;48.512;9.036;2023-07-02T10:50:24;28.40;49.70
55121;DHT22;41019;48.512;9.036;2023-07-02T10:52:51;28.60;49.50
55121;DHT22;41019;48.512;9.036;2023-07-02T10:55:21;28.90;49.50
55121;DHT22;41019;48.512;9.036;2023-07-02T10:57:47;29.00;49.50
55121;DHT22;41019;48.512;9.036;2023-07-02T11:00:14;29.10;49.90
55121;DHT22;41019;48.512;9.036;2023-07-02T11:02:40;29.20;49.80
55121;DHT22;41019;48.512;9.036;2023-07-02T11:05:07;29.10;48.20
55121;DHT22;41019;48.512;9.036;2023-07-02T11:07:41;29.00;48.80
55121;DHT22;41019;48.512;9.036;2023-07-02T11:10:09;28.80;48.70
55121;DHT22;41019;48.512;9.036;2023-07-02T11:12:35;28.60;50.60
55121;DHT22;41019;48.512;9.036;2023-07-02T11:15:14;28.50;48.30
55121;DHT22;41019;48.512;9.036;2023-07-02T11:17:41;28.30;49.50
55121;DHT22;41019;48.512;9.036;2023-07-02T11:20:09;28.50;49.70
55121;DHT22;41019;48.512;9.036;2023-07-02T11:22:36;28.70;50.60
55121;DHT22;41019;48.512;9.036;2023-07-02T11:25:19;28.90;48.40
55121;DHT22;41019;48.512;9.036;2023-07-02T11:27:47;29.00;48.40
55121;DHT22;41019;48.512;9.036;2023-07-02T11:30:13;29.10;47.60
55121;DHT22;41019;48.512;9.036;2023-07-02T11:32:50;29.00;48.90
55121;DHT22;41019;48.512;9.036;2023-07-02T11:35:16;29.30;48.40
55121;DHT22;41019;48.512;9.036;2023-07-02T11:37:42;29.40;46.50
55121;DHT22;41019;48.512;9.036;2023-07-02T11:40:09;29.50;46.20
55121;DHT22;41019;48.512;9.036;2023-07-02T11:42:35;29.50;46.20
55121;DHT22;41019;48.512;9.036;2023-07-02T11:45:01;29.70;46.10
55121;DHT22;41019;48.512;9.036;2023-07-02T11:47:27;30.00;47.10
55121;DHT22;41019;48.512;9.036;2023-07-02T11:49:53;30.20;45.10
55121;DHT22;41019;48.512;9.036;2023-07-02T11:52:21;30.10;44.40
55121;DHT22;41019;48.512;9.036;2023-07-02T11:54:47;30.20;45.50
55121;DHT22;41019;48.512;9.036;2023-07-02T11:57:14;30.20;46.30
55121;DHT22;41019;48.512;9.036;2023-07-02T11:59:42;30.30;45.10
55121;DHT22;41019;48.512;9.036;2023-07-02T12:02:08;30.50;44.20
55121;DHT22;41019;48.512;9.036;2023-07-02T12:04:34;30.50;43.40
55121;DHT22;41019;48.512;9.036;2023-07-02T12:07:00;30.50;42.70
55121;DHT22;41019;48.512;9.036;2023-07-02T12:09:29;30.50;42.80
55121;DHT22;41019;48.512;9.036;2023-07-02T12:11:55;30.60;42.70
55121;DHT22;41019;48.512;9.036;2023-07-02T12:14:22;30.60;43.00
55121;DHT22;41019;48.512;9.036;2023-07-02T12:16:47;30.60;44.10
55121;DHT22;41019;48.512;9.036;2023-07-02T12:19:14;30.60;43.50
55121;DHT22;41019;48.512;9.036;2023-07-02T12:21:39;30.60;43.70
55121;DHT22;41019;48.512;9.036;2023-07-02T12:24:05;30.40;43.70
55121;DHT22;41019;48.512;9.036;2023-07-02T12:26:39;30.60;43.70
55121;DHT22;41019;48.512;9.036;2023-07-02T12:29:05;30.80;43.50
55121;DHT22;41019;48.512;9.036;2023-07-02T12:31:31;30.70;42.10
55121;DHT22;41019;48.512;9.036;2023-07-02T12:33:57;30.60;42.50
55121;DHT22;41019;48.512;9.036;2023-07-02T12:36:23;30.60;43.80
55121;DHT22;41019;48.512;9.036;2023-07-02T12:38:49;30.60;43.00
55121;DHT22;41019;48.512;9.036;2023-07-02T12:41:15;30.60;42.60
55121;DHT22;41019;48.512;9.036;2023-07-02T12:43:41;30.70;43.40
55121;DHT22;41019;48.512;9.036;2023-07-02T12:46:07;30.80;42.40
55121;DHT22;41019;48.512;9.036;2023-07-02T12:48:33;31.00;40.90
55121;DHT22;41019;48.512;9.036;2023-07-02T12:51:00;30.90;41.30
55121;DHT22;41019;48.512;9.036;2023-07-02T12:53:27;30.90;41.20
55121;DHT22;41019;48.512;9.036;2023-07-02T12:55:54;30.80;40.90
55121;DHT22;41019;48.512;9.036;2023-07-02T12:58:20;30.70;41.00
55121;DHT22;41019;48.512;9.036;2023-07-02T13:00:47;30.70;40.80
55121;DHT22;41019;48.512;9.036;2023-07-02T13:03:14;30.60;41.20
55121;DHT22;41019;48.512;9.036;2023-07-02T13:05:40;30.60;40.80
55121;DHT22;41019;48.512;9.036;2023-07-02T13:08:06;30.60;41.00
55121;DHT22;41019;48.512;9.036;2023-07-02T13:10:33;30.60;41.70
55121;DHT22;41019;48.512;9.036;2023-07-02T13:13:00;30.70;41.10
55121;DHT22;41019;48.512;9.036;2023-07-02T13:15:26;30.60;40.60
55121;DHT22;41019;48.512;9.036;2023-07-02T13:17:52;30.70;41.80
55121;DHT22;41019;48.512;9.036;2023-07-02T13:20:18;30.80;42.30
55121;DHT22;41019;48.512;9.036;2023-07-02T13:22:44;30.80;42.10
55121;DHT22;41019;48.512;9.036;2023-07-02T13:25:10;30.90;40.90
55121;DHT22;41019;48.512;9.036;2023-07-02T13:27:37;30.50;41.30
55121;DHT22;41019;48.512;9.036;2023-07-02T13:30:03;30.60;42.60
55121;DHT22;41019;48.512;9.036;2023-07-02T13:32:29;30.70;42.50
55121;DHT22;41019;48.512;9.036;2023-07-02T13:34:55;30.70;42.20
55121;DHT22;41019;48.512;9.036;2023-07-02T13:37:21;30.50;42.10
55121;DHT22;41019;48.512;9.036;2023-07-02T13:39:48;30.50;42.30
55121;DHT22;41019;48.512;9.036;2023-07-02T13:42:14;30.60;42.90
55121;DHT22;41019;48.512;9.036;2023-07-02T13:44:41;30.60;42.70
55121;DHT22;41019;48.512;9.036;2023-07-02T13:47:08;30.60;42.10
55121;DHT22;41019;48.512;9.036;2023-07-02T13:49:34;30.80;41.80
55121;DHT22;41019;48.512;9.036;2023-07-02T13:52:00;30.80;43.10
55121;DHT22;41019;48.512;9.036;2023-07-02T13:54:26;30.80;42.10
55121;DHT22;41019;48.512;9.036;2023-07-02T13:56:53;30.60;40.70
55121;DHT22;41019;48.512;9.036;2023-07-02T13:59:20;30.60;42.40
55121;DHT22;41019;48.512;9.036;2023-07-02T14:01:47;30.40;41.80
55121;DHT22;41019;48.512;9.036;2023-07-02T14:04:14;30.00;42.10
55121;DHT22;41019;48.512;9.036;2023-07-02T14:06:40;29.90;43.30
55121;DHT22;41019;48.512;9.036;2023-07-02T14:09:06;29.70;43.80
55121;DHT22;41019;48.512;9.036;2023-07-02T14:11:35;29.90;44.60
55121;DHT22;41019;48.512;9.036;2023-07-02T14:14:01;30.00;42.90
55121;DHT22;41019;48.512;9.036;2023-07-02T14:16:27;30.20;43.10
55121;DHT22;41019;48.512;9.036;2023-07-02T14:18:53;30.00;43.10
55121;DHT22;41019;48.512;9.036;2023-07-02T14:21:19;29.80;43.40
55121;DHT22;41019;48.512;9.036;2023-07-02T14:23:45;29.80;44.20
55121;DHT22;41019;48.512;9.036;2023-07-02T14:26:11;29.70;43.70
55121;DHT22;41019;48.512;9.036;2023-07-02T14:28:38;29.50;42.40
55121;DHT22;41019;48.512;9.036;2023-07-02T14:31:05;29.20;43.70
55121;DHT22;41019;48.512;9.036;2023-07-02T14:33:34;29.20;42.80
55121;DHT22;41019;48.512;9.036;2023-07-02T14:36:02;29.20;44.00
55121;DHT22;41019;48.512;9.036;2023-07-02T14:38:29;29.30;43.20
55121;DHT22;41019;48.512;9.036;2023-07-02T14:40:55;29.50;43.40
55121;DHT22;41019;48.512;9.036;2023-07-02T14:43:25;29.50;42.00
55121;DHT22;41019;48.512;9.036;2023-07-02T14:45:54;29.50;42.30
55121;DHT22;41019;48.512;9.036;2023-07-02T14:48:21;29.70;42.50
55121;DHT22;41019;48.512;9.036;2023-07-02T14:50:56;29.80;42.30
55121;DHT22;41019;48.512;9.036;2023-07-02T14:53:24;30.00;41.90
55121;DHT22;41019;48.512;9.036;2023-07-02T14:55:50;30.00;43.00
55121;DHT22;41019;48.512;9.036;2023-07-02T14:58:17;30.10;41.90
55121;DHT22;41019;48.512;9.036;2023-07-02T15:00:51;30.10;41.50
55121;DHT22;41019;48.512;9.036;2023-07-02T15:03:17;30.00;42.10
55121;DHT22;41019;48.512;9.036;2023-07-02T15:05:46;29.70;42.50
55121;DHT22;41019;48.512;9.036;2023-07-02T15:08:12;29.60;44.00
55121;DHT22;41019;48.512;9.036;2023-07-02T15:10:39;29.50;43.20
55121;DHT22;41019;48.512;9.036;2023-07-02T15:13:06;29.60;43.40
55121;DHT22;41019;48.512;9.036;2023-07-02T15:15:33;29.70;44.30
55121;DHT22;41019;48.512;9.036;2023-07-02T15:17:59;29.80;44.60
55121;DHT22;41019;48.512;9.036;2023-07-02T15:20:26;29.80;43.90
55121;DHT22;41019;48.512;9.036;2023-07-02T15:22:51;29.80;43.50
55121;DHT22;41019;48.512;9.036;2023-07-02T15:25:17;29.60;43.10
55121;DHT22;41019;48.512;9.036;2023-07-02T15:27:43;29.60;43.20
55121;DHT22;41019;48.512;9.036;2023-07-02T15:30:09;29.40;43.30
55121;DHT22;41019;48.512;9.036;2023-07-02T15:32:35;29.40;44.30
55121;DHT22;41019;48.512;9.036;2023-07-02T15:35:01;29.50;44.60
55121;DHT22;41019;48.512;9.036;2023-07-02T15:37:27;29.50;43.20
55121;DHT22;41019;48.512;9.036;2023-07-02T15:39:52;29.40;43.90